Time;durP1;ratioP1;P1;durP2;ratioP2;P2;SDS_P1;SDS_P2;PMS_P1;PMS_P2;Temp;Humidity;BMP_temperature;BMP_pressure;BME280_temperature;BME280_humidity;BME280_pressure;Samples;Min_cycle;Max_cycle;Signal;HPM_P1;HPM_P2
2023/09/01 00:00:59;;;;;;;8.63;8.03;;;15.80;99.90;;;;;;5032797;28;20192;-81
2023/09/01 00:03:45;;;;;;;9.50;8.70;;;15.80;99.90;;;;;;5034227;28;20203;-82
2023/09/01 00:06:13;;;;;;;9.03;8.43;;;15.90;99.90;;;;;;5032641;28;20199;-81
2023/09/01 00:08:42;;;;;;;8.97;8.37;;;15.90;99.90;;;;;;5027555;28;20571;-81
2023/09/01 00:11:09;;;;;;;8.70;8.10;;;15.90;99.90;;;;;;5033730;28;20195;-82
2023/09/01 00:13:36;;;;;;;8.80;8.20;;;15.90;99.90;;;;;;5033586;28;20214;-80
2023/09/01 00:16:02;;;;;;;9.00;8.40;;;16.00;99.90;;;;;;5032294;28;20665;-81
2023/09/01 00:18:30;;;;;;;8.63;8.10;;;15.90;99.90;;;;;;5032105;28;20301;-81
2023/09/01 00:21:00;;;;;;;8.90;8.20;;;15.90;99.90;;;;;;5032009;28;20550;-81
2023/09/01 00:23:27;;;;;;;8.53;8.00;;;15.90;99.90;;;;;;5029142;28;20233;-81
2023/09/01 00:25:56;;;;;;;8.60;8.00;;;15.90;99.90;;;;;;5032332;28;20197;-81
2023/09/01 00:28:24;;;;;;;8.53;8.03;;;15.90;99.90;;;;;;5032118;28;20221;-80
2023/09/01 00:30:52;;;;;;;9.10;8.50;;;15.90;99.90;;;;;;5033670;28;20187;-81
2023/09/01 00:33:19;;;;;;;8.40;7.90;;;16.00;99.90;;;;;;5049310;28;20280;-81
2023/09/01 00:35:45;;;;;;;8.57;7.93;;;16.00;99.90;;;;;;5033126;28;20207;-81
2023/09/01 00:38:12;;;;;;;9.00;8.40;;;16.00;99.90;;;;;;5024736;28;20201;-81
2023/09/01 00:40:39;;;;;;;9.03;8.37;;;16.00;99.90;;;;;;5031945;28;20200;-80
2023/09/01 00:43:07;;;;;;;8.70;8.10;;;16.00;99.90;;;;;;5027705;28;20224;-82
2023/09/01 00:45:34;;;;;;;9.13;8.53;;;16.10;99.90;;;;;;5033037;28;20192;-81
2023/09/01 00:48:01;;;;;;;9.80;8.97;;;16.10;99.90;;;;;;5032443;28;20211;-81
2023/09/01 00:50:28;;;;;;;9.43;8.80;;;16.10;99.90;;;;;;5031962;28;20227;-81
2023/09/01 00:52:56;;;;;;;9.10;8.50;;;16.00;99.90;;;;;;5025345;28;20212;-81
2023/09/01 00:55:22;;;;;;;9.23;8.53;;;16.00;99.90;;;;;;5044492;28;20226;-81
2023/09/01 00:57:49;;;;;;;8.50;7.90;;;16.00;99.90;;;;;;5031726;28;20210;-81
2023/09/01 01:00:18;;;;;;;9.13;8.53;;;16.00;99.90;;;;;;5032034;28;20199;-81
2023/09/01 01:02:46;;;;;;;8.80;8.20;;;16.00;99.90;;;;;;5024610;28;20319;-81
2023/09/01 01:05:15;;;;;;;8.80;8.20;;;16.00;99.90;;;;;;5029986;28;20200;-81
2023/09/01 01:07:51;;;;;;;9.00;8.40;;;16.00;99.90;;;;;;5031758;28;20602;-81
2023/09/01 01:10:20;;;;;;;9.33;8.63;;;16.00;99.90;;;;;;5031803;28;20218;-81
2023/09/01 01:12:50;;;;;;;8.37;7.87;;;15.90;99.90;;;;;;5048815;28;20280;-81
2023/09/01 01:15:20;;;;;;;9.13;8.43;;;15.90;99.90;;;;;;5027199;28;20202;-81
2023/09/01 01:17:48;;;;;;;9.33;8.70;;;15.90;99.90;;;;;;5026789;28;20210;-82
2023/09/01 01:20:28;;;;;;;8.87;8.27;;;15.90;99.90;;;;;;5035635;28;20214;-81
2023/09/01 01:23:09;;;;;;;8.90;8.30;;;15.80;99.90;;;;;;5035893;28;20742;-81
2023/09/01 01:25:36;;;;;;;8.67;8.07;;;15.90;99.90;;;;;;5029450;28;20204;-82
2023/09/01 01:28:08;;;;;;;8.37;7.87;;;15.90;99.90;;;;;;5036395;28;20195;-81
2023/09/01 01:30:35;;;;;;;9.20;8.60;;;15.90;99.90;;;;;;5034697;28;20219;-81
2023/09/01 01:33:02;;;;;;;8.83;8.23;;;15.90;99.90;;;;;;5035966;28;20702;-81
2023/09/01 01:35:32;;;;;;;8.80;8.20;;;15.90;99.90;;;;;;5044925;28;20277;-81
2023/09/01 01:38:09;;;;;;;8.90;8.30;;;16.00;99.90;;;;;;5035407;28;20207;-81
2023/09/01 01:40:38;;;;;;;8.83;8.23;;;16.00;99.90;;;;;;5034948;28;20601;-82
2023/09/01 01:43:09;;;;;;;8.30;7.80;;;16.00;99.90;;;;;;5035379;28;20242;-81
2023/09/01 01:45:41;;;;;;;8.20;7.70;;;16.10;99.90;;;;;;5036432;28;20206;-81
2023/09/01 01:48:08;;;;;;;8.80;8.20;;;16.10;99.90;;;;;;5034795;28;20195;-81
2023/09/01 01:50:35;;;;;;;9.10;8.40;;;16.10;99.90;;;;;;5035040;28;20359;-81
2023/09/01 01:53:05;;;;;;;8.93;8.33;;;16.10;99.90;;;;;;5036157;28;20210;-81
2023/09/01 01:55:33;;;;;;;8.67;8.17;;;16.10;99.90;;;;;;5035924;28;20274;-81
2023/09/01 01:58:00;;;;;;;8.90;8.30;;;16.10;99.90;;;;;;5041641;28;20277;-81
2023/09/01 02:00:28;;;;;;;9.30;8.70;;;16.10;99.90;;;;;;5030178;28;20253;-81
2023/09/01 02:02:54;;;;;;;8.40;7.90;;;16.10;99.90;;;;;;5035748;28;20495;-81
2023/09/01 02:05:22;;;;;;;8.33;7.80;;;16.10;99.90;;;;;;5028371;28;20203;-81
2023/09/01 02:07:49;;;;;;;9.00;8.40;;;16.20;99.90;;;;;;5033936;28;20196;-81
2023/09/01 02:10:17;;;;;;;9.10;8.40;;;16.10;99.90;;;;;;5034739;28;20265;-82
2023/09/01 02:12:45;;;;;;;8.73;8.13;;;16.20;99.90;;;;;;5034672;28;20224;-81
2023/09/01 02:15:12;;;;;;;8.90;8.20;;;16.20;99.90;;;;;;5028485;28;20203;-81
2023/09/01 02:17:39;;;;;;;8.87;8.27;;;16.20;99.90;;;;;;5034816;28;20216;-81
2023/09/01 02:20:16;;;;;;;8.00;7.50;;;16.20;99.90;;;;;;5035405;28;20240;-81
2023/09/01 02:22:44;;;;;;;8.50;8.00;;;16.20;99.90;;;;;;5034738;28;20238;-81
2023/09/01 02:25:12;;;;;;;8.60;7.90;;;16.20;99.90;;;;;;5030848;28;20672;-81
2023/09/01 02:27:41;;;;;;;8.50;8.00;;;16.20;99.90;;;;;;5035785;28;20227;-81
2023/09/01 02:30:11;;;;;;;8.43;7.93;;;16.20;99.90;;;;;;5030196;28;20219;-81
2023/09/01 02:32:39;;;;;;;8.83;8.23;;;16.10;99.90;;;;;;5034374;28;20230;-81
2023/09/01 02:35:08;;;;;;;8.23;7.70;;;16.10;99.90;;;;;;5033930;28;20211;-81
2023/09/01 02:37:35;;;;;;;8.13;7.53;;;16.10;99.90;;;;;;5034242;28;20261;-81
2023/09/01 02:40:10;;;;;;;8.10;7.60;;;16.10;99.90;;;;;;5034265;28;20621;-81
2023/09/01 02:42:41;;;;;;;8.00;7.50;;;16.10;99.90;;;;;;5034400;28;20716;-83
2023/09/01 02:45:11;;;;;;;8.13;7.60;;;16.10;99.90;;;;;;5030229;28;20210;-80
2023/09/01 02:47:40;;;;;;;8.37;7.80;;;16.10;99.90;;;;;;5035115;28;20203;-80
2023/09/01 02:50:08;;;;;;;8.40;7.70;;;16.10;99.90;;;;;;5033372;28;20212;-81
2023/09/01 02:52:35;;;;;;;8.03;7.43;;;16.10;99.90;;;;;;5032843;28;20213;-81
2023/09/01 02:55:03;;;;;;;8.13;7.63;;;16.20;99.90;;;;;;5029256;28;20626;-81
2023/09/01 02:57:29;;;;;;;8.60;8.10;;;16.20;99.90;;;;;;5031176;28;20728;-81
2023/09/01 02:59:57;;;;;;;8.20;7.60;;;16.20;99.90;;;;;;5031734;28;20202;-81
2023/09/01 03:02:26;;;;;;;8.40;7.80;;;16.20;99.90;;;;;;5042093;28;20231;-81
2023/09/01 03:04:55;;;;;;;8.10;7.60;;;16.30;99.90;;;;;;5035573;28;20261;-82
2023/09/01 03:07:24;;;;;;;8.60;8.10;;;16.30;99.90;;;;;;5046349;28;20203;-82
2023/09/01 03:09:50;;;;;;;9.20;8.60;;;16.30;99.90;;;;;;5042031;28;20210;-81
2023/09/01 03:12:17;;;;;;;8.33;7.83;;;16.30;99.90;;;;;;5043328;28;20218;-81
2023/09/01 03:14:44;;;;;;;8.03;7.63;;;16.40;99.90;;;;;;5033643;28;20285;-82
2023/09/01 03:17:11;;;;;;;8.00;7.60;;;16.40;99.90;;;;;;5031436;28;20188;-82
2023/09/01 03:19:40;;;;;;;9.10;8.50;;;16.40;99.90;;;;;;5031555;28;20192;-81
2023/09/01 03:22:06;;;;;;;8.17;7.57;;;16.40;99.90;;;;;;5050033;28;20215;-81
2023/09/01 03:24:34;;;;;;;9.17;8.37;;;16.40;99.90;;;;;;5033168;28;20203;-81
2023/09/01 03:27:01;;;;;;;8.60;7.90;;;16.50;99.90;;;;;;5031509;28;20196;-82
2023/09/01 03:29:28;;;;;;;8.27;7.77;;;16.60;99.90;;;;;;5033589;28;20207;-81
2023/09/01 03:31:55;;;;;;;8.57;7.90;;;16.60;99.90;;;;;;5025968;28;20224;-81
2023/09/01 03:34:23;;;;;;;8.60;8.10;;;16.70;99.90;;;;;;5026257;28;20199;-80
2023/09/01 03:36:53;;;;;;;8.67;8.07;;;16.60;99.90;;;;;;5034764;28;20199;-81
2023/09/01 03:39:20;;;;;;;8.43;7.83;;;16.70;99.90;;;;;;5031438;28;20215;-81
2023/09/01 03:41:47;;;;;;;9.00;8.40;;;16.70;99.90;;;;;;5035725;28;20689;-78
2023/09/01 03:44:13;;;;;;;8.23;7.73;;;16.80;99.90;;;;;;5033430;28;20200;-77
2023/09/01 03:46:40;;;;;;;8.33;7.73;;;16.70;99.90;;;;;;5034116;28;20566;-78
2023/09/01 03:49:07;;;;;;;7.93;7.43;;;16.80;99.90;;;;;;5025763;28;20204;-78
2023/09/01 03:51:34;;;;;;;8.40;7.80;;;16.70;99.90;;;;;;5033687;28;20310;-78
2023/09/01 03:54:02;;;;;;;8.00;7.50;;;16.70;99.90;;;;;;5034322;28;20287;-78
2023/09/01 03:56:29;;;;;;;8.07;7.57;;;16.70;99.90;;;;;;5037773;28;20199;-78
2023/09/01 03:58:57;;;;;;;8.17;7.67;;;16.70;99.90;;;;;;5035332;28;20191;-78
2023/09/01 04:01:23;;;;;;;8.40;7.90;;;16.70;99.90;;;;;;5036665;28;20196;-78
2023/09/01 04:03:50;;;;;;;8.10;7.60;;;16.70;99.90;;;;;;5030337;28;20219;-77
2023/09/01 04:06:17;;;;;;;7.83;7.40;;;16.80;99.90;;;;;;5033280;28;20200;-77
2023/09/01 04:08:44;;;;;;;7.43;7.03;;;16.80;99.90;;;;;;5033053;28;20740;-76
2023/09/01 04:11:12;;;;;;;7.40;7.00;;;16.70;99.90;;;;;;5024429;28;20216;-77
2023/09/01 04:13:40;;;;;;;7.73;7.23;;;16.70;99.90;;;;;;5031454;28;20265;-77
2023/09/01 04:16:07;;;;;;;7.37;6.97;;;16.70;99.90;;;;;;5032348;28;20196;-77
2023/09/01 04:18:34;;;;;;;7.63;7.10;;;16.60;99.90;;;;;;5031008;28;20294;-77
2023/09/01 04:21:01;;;;;;;8.13;7.63;;;16.60;99.90;;;;;;5030792;28;20196;-76
2023/09/01 04:23:28;;;;;;;8.63;8.00;;;16.60;99.90;;;;;;5030746;28;20304;-77
2023/09/01 04:25:56;;;;;;;8.33;7.83;;;16.60;99.90;;;;;;5030644;28;20221;-77
2023/09/01 04:28:27;;;;;;;8.63;8.10;;;16.50;99.90;;;;;;5031239;28;20282;-77
2023/09/01 04:30:59;;;;;;;8.13;7.63;;;16.50;99.90;;;;;;5030782;28;20632;-76
2023/09/01 04:33:27;;;;;;;8.10;7.60;;;16.60;99.90;;;;;;5034028;28;20261;-78
2023/09/01 04:35:58;;;;;;;8.03;7.63;;;16.60;99.90;;;;;;5036093;28;20204;-78
2023/09/01 04:38:25;;;;;;;8.30;7.80;;;16.60;99.90;;;;;;5029288;28;20586;-78
2023/09/01 04:40:56;;;;;;;8.30;7.80;;;16.60;99.90;;;;;;5031403;28;20692;-79
2023/09/01 04:43:25;;;;;;;9.10;8.40;;;16.60;99.90;;;;;;5035488;28;20216;-79
2023/09/01 04:45:53;;;;;;;8.70;8.20;;;16.60;99.90;;;;;;5029845;28;20208;-78
2023/09/01 04:48:20;;;;;;;8.57;8.07;;;16.70;99.90;;;;;;5034812;28;20200;-78
2023/09/01 04:50:48;;;;;;;8.37;7.80;;;16.70;99.90;;;;;;5035064;28;20211;-78
2023/09/01 04:53:15;;;;;;;8.50;8.00;;;16.70;99.90;;;;;;5034583;28;20208;-78
2023/09/01 04:55:43;;;;;;;8.40;7.90;;;16.70;99.90;;;;;;5034689;28;20211;-78
2023/09/01 04:58:10;;;;;;;8.67;8.17;;;16.70;99.90;;;;;;5034966;28;20254;-78
2023/09/01 05:00:37;;;;;;;8.20;7.80;;;16.70;99.90;;;;;;5027263;28;20205;-78
2023/09/01 05:03:06;;;;;;;8.90;8.30;;;16.70;99.90;;;;;;5030895;28;20278;-79
2023/09/01 05:05:33;;;;;;;8.80;8.30;;;16.70;99.90;;;;;;5034120;28;20188;-78
2023/09/01 05:07:59;;;;;;;9.03;8.50;;;16.70;99.90;;;;;;5034341;28;20288;-78
2023/09/01 05:10:27;;;;;;;8.87;8.37;;;16.70;99.90;;;;;;5031377;28;20225;-78
2023/09/01 05:12:53;;;;;;;8.43;8.03;;;16.70;99.90;;;;;;5033533;28;20227;-78
2023/09/01 05:15:20;;;;;;;8.80;8.30;;;16.70;99.90;;;;;;5034889;28;20199;-79
2023/09/01 05:17:48;;;;;;;8.50;8.00;;;16.80;99.90;;;;;;5034636;28;20191;-79
2023/09/01 05:20:16;;;;;;;8.87;8.37;;;16.80;99.90;;;;;;5035016;28;20280;-78
2023/09/01 05:22:43;;;;;;;8.80;8.30;;;16.80;99.90;;;;;;5034386;28;20219;-79
2023/09/01 05:25:11;;;;;;;8.73;8.23;;;16.90;99.90;;;;;;5034023;28;20238;-79
2023/09/01 05:27:38;;;;;;;8.67;8.17;;;16.90;99.90;;;;;;5029474;28;20204;-78
2023/09/01 05:30:07;;;;;;;8.80;8.30;;;16.90;99.90;;;;;;5035335;28;20253;-79
2023/09/01 05:32:35;;;;;;;8.73;8.23;;;16.90;99.90;;;;;;5035604;28;20215;-79
2023/09/01 05:35:03;;;;;;;8.97;8.47;;;17.00;99.90;;;;;;5033489;28;20204;-79
2023/09/01 05:37:31;;;;;;;8.57;8.07;;;17.10;99.90;;;;;;5029317;28;20204;-78
2023/09/01 05:39:58;;;;;;;8.37;7.93;;;17.10;99.90;;;;;;5033258;28;20206;-79
2023/09/01 05:42:24;;;;;;;8.60;8.10;;;17.20;99.90;;;;;;5028166;28;20528;-79
2023/09/01 05:44:51;;;;;;;8.90;8.40;;;17.30;99.90;;;;;;5047432;28;20215;-79
2023/09/01 05:47:19;;;;;;;8.40;8.00;;;17.30;99.90;;;;;;5034058;28;20250;-79
2023/09/01 05:49:45;;;;;;;8.63;8.13;;;17.30;99.90;;;;;;5033890;28;20196;-78
2023/09/01 05:52:12;;;;;;;8.77;8.27;;;17.30;99.90;;;;;;5033474;28;20228;-78
2023/09/01 05:54:40;;;;;;;9.10;8.60;;;17.30;99.90;;;;;;5033707;28;20223;-78
2023/09/01 05:57:07;;;;;;;8.70;8.20;;;17.30;99.90;;;;;;5034749;28;20204;-78
2023/09/01 05:59:34;;;;;;;8.90;8.40;;;17.30;99.90;;;;;;5028644;28;20312;-78
2023/09/01 06:02:01;;;;;;;9.10;8.60;;;17.40;99.90;;;;;;5031280;28;20251;-79
2023/09/01 06:04:28;;;;;;;9.23;8.73;;;17.30;99.90;;;;;;5029149;28;20231;-79
2023/09/01 06:06:55;;;;;;;9.07;8.57;;;17.30;99.90;;;;;;5031915;28;20222;-78
2023/09/01 06:09:22;;;;;;;9.07;8.57;;;17.30;99.90;;;;;;5033301;28;20196;-79
2023/09/01 06:11:51;;;;;;;9.27;8.77;;;17.30;99.90;;;;;;5027364;28;20216;-84
2023/09/01 06:14:17;;;;;;;9.27;8.77;;;17.30;99.90;;;;;;5036008;28;20219;-79
2023/09/01 06:16:47;;;;;;;9.23;8.63;;;17.30;99.90;;;;;;5037716;28;20220;-79
2023/09/01 06:19:13;;;;;;;9.43;8.93;;;17.20;99.90;;;;;;5038685;28;20200;-78
2023/09/01 06:21:40;;;;;;;9.27;8.77;;;17.30;99.90;;;;;;5036495;28;20217;-84
2023/09/01 06:24:07;;;;;;;9.80;9.20;;;17.20;99.90;;;;;;5036613;28;20246;-83
2023/09/01 06:26:34;;;;;;;10.00;9.40;;;17.20;99.90;;;;;;5035305;28;20265;-83
2023/09/01 06:29:03;;;;;;;9.60;9.00;;;17.20;99.90;;;;;;5039156;28;20257;-81
2023/09/01 06:31:30;;;;;;;9.37;8.77;;;17.20;99.90;;;;;;5031233;28;20219;-82
2023/09/01 06:33:57;;;;;;;9.40;8.80;;;17.20;99.90;;;;;;5029842;28;20244;-82
2023/09/01 06:36:24;;;;;;;9.60;9.10;;;17.30;99.90;;;;;;5034721;28;20197;-83
2023/09/01 06:38:51;;;;;;;9.10;8.60;;;17.30;99.90;;;;;;5035777;28;20606;-83
2023/09/01 06:41:17;;;;;;;9.70;9.10;;;17.30;99.90;;;;;;5034483;28;20201;-82
2023/09/01 06:43:44;;;;;;;9.77;9.20;;;17.30;99.90;;;;;;5030802;28;20214;-82
2023/09/01 06:46:14;;;;;;;9.90;9.40;;;17.30;99.90;;;;;;5036331;28;20253;-83
2023/09/01 06:48:42;;;;;;;10.20;9.60;;;17.40;99.90;;;;;;5036235;28;20196;-83
2023/09/01 06:51:09;;;;;;;10.10;9.50;;;17.50;99.90;;;;;;5027796;28;20764;-83
2023/09/01 06:53:36;;;;;;;10.30;9.70;;;17.60;99.90;;;;;;5035242;28;20278;-83
2023/09/01 06:56:03;;;;;;;10.57;9.87;;;17.60;99.90;;;;;;5033936;28;20196;-83
2023/09/01 06:58:30;;;;;;;9.90;9.30;;;17.70;99.90;;;;;;5031803;28;20206;-78
2023/09/01 07:00:58;;;;;;;10.87;10.07;;;17.70;99.90;;;;;;5029680;28;20244;-78
2023/09/01 07:03:26;;;;;;;10.40;9.70;;;17.80;99.90;;;;;;5032989;28;20231;-78
2023/09/01 07:05:55;;;;;;;9.97;9.37;;;17.80;99.90;;;;;;5033504;28;20193;-78
2023/09/01 07:08:22;;;;;;;10.30;9.50;;;17.90;99.90;;;;;;5044258;28;20203;-78
2023/09/01 07:10:48;;;;;;;10.43;9.73;;;18.00;99.90;;;;;;5039001;28;20203;-78
2023/09/01 07:13:15;;;;;;;11.00;10.10;;;18.10;99.90;;;;;;5037037;28;20222;-78
2023/09/01 07:15:47;;;;;;;10.73;10.13;;;18.20;99.90;;;;;;5035874;28;20193;-78
2023/09/01 07:18:14;;;;;;;10.80;10.20;;;18.40;99.90;;;;;;5035083;28;20207;-78
2023/09/01 07:20:44;;;;;;;2.80;2.60;;;18.50;99.90;;;;;;5035834;28;20195;-81
2023/09/01 07:23:11;;;;;;;2.93;2.73;;;18.60;99.90;;;;;;5031588;28;20599;-81
2023/09/01 07:25:38;;;;;;;6.53;6.13;;;18.90;99.90;;;;;;5033663;28;20209;-81
2023/09/01 07:28:05;;;;;;;3.13;2.83;;;19.10;99.90;;;;;;5027368;28;20199;-81
2023/09/01 07:30:33;;;;;;;8.10;7.50;;;19.20;99.90;;;;;;5038476;28;20605;-81
2023/09/01 07:33:00;;;;;;;7.00;6.50;;;19.30;99.90;;;;;;5043576;28;20223;-81
2023/09/01 07:35:26;;;;;;;7.73;7.30;;;19.30;99.90;;;;;;5036961;28;20701;-82
2023/09/01 07:37:55;;;;;;;7.47;6.97;;;19.40;99.90;;;;;;5035784;28;20195;-81
2023/09/01 07:40:22;;;;;;;2.80;2.60;;;19.60;99.90;;;;;;5040171;28;20212;-81
2023/09/01 07:42:49;;;;;;;4.57;4.27;;;19.60;99.90;;;;;;5039471;28;20489;-80
2023/09/01 07:45:16;;;;;;;2.90;2.60;;;19.70;99.90;;;;;;5039586;28;20560;-80
2023/09/01 07:47:44;;;;;;;2.63;2.43;;;19.80;99.90;;;;;;5035816;28;20203;-80
2023/09/01 07:50:10;;;;;;;2.63;2.43;;;19.90;99.90;;;;;;5036988;28;20192;-79
2023/09/01 07:52:37;;;;;;;2.63;2.43;;;20.00;99.90;;;;;;5037118;28;20640;-80
2023/09/01 07:55:06;;;;;;;6.27;5.87;;;20.10;99.90;;;;;;5043205;28;20218;-81
2023/09/01 07:57:33;;;;;;;2.77;2.57;;;20.10;99.90;;;;;;5040466;28;20199;-82
2023/09/01 08:00:00;;;;;;;5.10;4.70;;;20.10;99.90;;;;;;5050183;28;20285;-82
2023/09/01 08:02:28;;;;;;;2.80;2.60;;;20.10;99.90;;;;;;5031665;28;20223;-81
2023/09/01 08:04:54;;;;;;;2.93;2.73;;;20.00;99.90;;;;;;5038648;28;20198;-81
2023/09/01 08:07:22;;;;;;;6.07;5.67;;;19.90;99.90;;;;;;5041563;28;20297;-82
2023/09/01 08:09:49;;;;;;;6.30;5.93;;;20.00;99.90;;;;;;5039081;28;20233;-82
2023/09/01 08:12:17;;;;;;;5.23;4.93;;;20.10;99.90;;;;;;5032074;28;20702;-82
2023/09/01 08:14:45;;;;;;;6.23;5.83;;;20.30;99.90;;;;;;5035125;28;20203;-82
2023/09/01 08:17:11;;;;;;;2.50;2.40;;;20.50;99.90;;;;;;5038455;28;20666;-79
2023/09/01 08:19:40;;;;;;;2.60;2.40;;;20.60;99.90;;;;;;5033161;28;20199;-80
2023/09/01 08:22:07;;;;;;;2.30;2.20;;;20.80;99.90;;;;;;5036487;28;20737;-81
2023/09/01 08:24:34;;;;;;;2.83;2.63;;;20.90;99.90;;;;;;5033613;28;20196;-81
2023/09/01 08:27:02;;;;;;;8.27;7.77;;;21.20;99.90;;;;;;5033694;28;20674;-80
2023/09/01 08:29:31;;;;;;;8.30;7.80;;;21.50;99.90;;;;;;5035602;28;20224;-80
2023/09/01 08:32:00;;;;;;;7.40;7.00;;;21.70;99.90;;;;;;5034169;28;20227;-79
2023/09/01 08:34:28;;;;;;;8.17;7.67;;;22.00;99.90;;;;;;5033320;28;20196;-78
2023/09/01 08:36:54;;;;;;;8.40;8.00;;;22.40;99.90;;;;;;5032054;28;20208;-79
2023/09/01 08:39:21;;;;;;;7.73;7.27;;;22.60;99.90;;;;;;5033608;28;20222;-79
2023/09/01 08:41:50;;;;;;;2.97;2.77;;;23.10;99.90;;;;;;5024254;28;20212;-79
2023/09/01 08:44:20;;;;;;;3.30;3.10;;;23.30;99.90;;;;;;5029574;28;20283;-80
2023/09/01 08:46:49;;;;;;;5.90;5.27;;;23.20;99.90;;;;;;5028549;28;20472;-80
2023/09/01 08:49:16;;;;;;;6.07;4.13;;;22.90;99.90;;;;;;5031800;28;20207;-79
2023/09/01 08:51:45;;;;;;;3.80;3.60;;;22.50;99.90;;;;;;5032200;28;20266;-79
2023/09/01 08:54:12;;;;;;;8.03;7.43;;;22.00;99.90;;;;;;5032074;28;20200;-81
2023/09/01 08:56:39;;;;;;;7.70;7.20;;;21.80;99.90;;;;;;5025651;28;20258;-79
2023/09/01 08:59:05;;;;;;;8.17;7.57;;;21.70;99.90;;;;;;5033580;28;20200;-79
2023/09/01 09:01:32;;;;;;;7.57;7.17;;;21.70;99.90;;;;;;5032887;28;20234;-79
2023/09/01 09:04:01;;;;;;;8.43;7.93;;;21.70;99.90;;;;;;5027140;28;20204;-78
2023/09/01 09:06:35;;;;;;;3.87;2.63;;;21.70;99.90;;;;;;5033129;28;20278;-79
2023/09/01 09:09:07;;;;;;;2.87;2.67;;;21.80;99.90;;;;;;5032331;28;20200;-78
2023/09/01 09:11:34;;;;;;;2.40;2.30;;;22.00;99.90;;;;;;5028295;28;20602;-79
2023/09/01 09:14:01;;;;;;;2.80;2.60;;;22.20;99.90;;;;;;5034131;28;20211;-79
2023/09/01 09:16:28;;;;;;;6.40;6.00;;;22.70;99.90;;;;;;5031543;28;20204;-81
2023/09/01 09:18:55;;;;;;;8.13;7.63;;;23.10;99.90;;;;;;5033046;28;20560;-81
2023/09/01 09:21:26;;;;;;;8.60;8.00;;;23.60;99.90;;;;;;5033598;28;20200;-79
2023/09/01 09:23:54;;;;;;;7.97;7.47;;;24.10;99.90;;;;;;5032347;28;20651;-82
2023/09/01 09:26:26;;;;;;;4.90;4.50;;;24.20;99.90;;;;;;5032950;28;20195;-78
2023/09/01 09:28:53;;;;;;;8.50;7.90;;;24.20;99.90;;;;;;5034906;28;20223;-79
2023/09/01 09:31:29;;;;;;;7.87;7.37;;;24.30;99.90;;;;;;5033793;28;20204;-79
2023/09/01 09:33:56;;;;;;;5.20;4.80;;;24.60;99.90;;;;;;5034241;28;20195;-78
2023/09/01 09:36:36;;;;;;;8.60;8.10;;;24.90;99.90;;;;;;5029306;28;20251;-79
2023/09/01 09:39:03;;;;;;;8.27;7.77;;;24.80;99.90;;;;;;5030310;28;20188;-79
2023/09/01 09:41:45;;;;;;;5.90;5.43;;;24.90;99.90;;;;;;5038971;28;20200;-79
2023/09/01 09:44:12;;;;;;;4.63;4.33;;;24.60;99.90;;;;;;5038316;28;20199;-79
2023/09/01 09:46:41;;;;;;;5.80;5.30;;;24.40;99.90;;;;;;5036770;28;20273;-79
2023/09/01 09:49:09;;;;;;;4.40;4.10;;;24.20;99.90;;;;;;5036223;28;20202;-79
2023/09/01 09:51:39;;;;;;;4.37;4.07;;;24.10;99.90;;;;;;5036587;28;20235;-79
2023/09/01 09:54:10;;;;;;;4.50;4.20;;;24.00;99.90;;;;;;5038138;28;20218;-79
2023/09/01 09:56:40;;;;;;;4.00;3.80;;;23.80;99.90;;;;;;5042738;28;20204;-79
2023/09/01 09:59:13;;;;;;;4.40;4.10;;;23.90;99.90;;;;;;5037080;28;20199;-79
2023/09/01 10:04:10;;;;;;;7.60;7.10;;;24.10;99.90;;;;;;5068051;23;20230;-77
2023/09/01 10:06:39;;;;;;;6.70;6.30;;;24.10;99.90;;;;;;5052063;28;20211;-77
2023/09/01 10:09:08;;;;;;;4.80;4.40;;;24.00;99.90;;;;;;5041104;28;20197;-77
2023/09/01 10:11:35;;;;;;;5.40;5.03;;;23.90;99.90;;;;;;5042719;28;20273;-77
2023/09/01 10:14:02;;;;;;;5.60;5.23;;;23.80;99.90;;;;;;5054911;28;20273;-76
2023/09/01 10:16:30;;;;;;;4.60;4.30;;;23.80;99.90;;;;;;5054505;28;20245;-77
2023/09/01 10:18:57;;;;;;;5.23;4.83;;;23.70;99.90;;;;;;5038066;28;20191;-77
2023/09/01 10:21:24;;;;;;;4.53;4.23;;;23.60;99.90;;;;;;5049734;28;20759;-77
2023/09/01 10:23:53;;;;;;;4.57;4.10;;;23.70;99.90;;;;;;5048270;28;20626;-76
2023/09/01 10:26:25;;;;;;;4.30;4.00;;;23.70;99.90;;;;;;5050861;28;20666;-77
2023/09/01 10:28:57;;;;;;;4.47;3.70;;;23.70;99.90;;;;;;5049871;28;20725;-77
2023/09/01 10:31:24;;;;;;;3.90;3.60;;;23.80;99.90;;;;;;5049103;28;20211;-77
2023/09/01 10:34:09;;;;;;;4.10;3.80;;;23.80;99.90;;;;;;5053455;28;20269;-77
2023/09/01 10:36:37;;;;;;;4.00;3.70;;;23.90;99.90;;;;;;5053458;28;20223;-76
2023/09/01 10:39:22;;;;;;;4.20;3.90;;;24.00;99.90;;;;;;5047895;28;20241;-76
2023/09/01 10:41:57;;;;;;;4.10;3.80;;;24.10;99.90;;;;;;5047696;28;20226;-77
2023/09/01 10:44:26;;;;;;;5.87;5.40;;;24.20;99.90;;;;;;5046330;28;20206;-77
2023/09/01 10:46:53;;;;;;;6.63;6.20;;;24.30;99.90;;;;;;5050881;28;20257;-77
2023/09/01 10:49:20;;;;;;;8.00;7.50;;;24.20;99.90;;;;;;5049181;28;20616;-77
2023/09/01 10:51:46;;;;;;;4.60;4.20;;;24.20;99.90;;;;;;5038334;28;20253;-76
2023/09/01 10:54:42;;;;;;;6.20;5.70;;;24.00;99.90;;;;;;5048724;28;20660;-77
2023/09/01 10:57:15;;;;;;;7.30;6.80;;;23.90;99.90;;;;;;5048209;28;20266;-77
2023/09/01 10:59:42;;;;;;;7.97;7.37;;;23.90;99.90;;;;;;5050285;28;20577;-77
2023/09/01 11:02:19;;;;;;;8.47;7.97;;;24.00;99.90;;;;;;5052009;28;20718;-77
2023/09/01 11:04:46;;;;;;;8.00;7.40;;;24.10;99.90;;;;;;5053486;28;20249;-76
2023/09/01 11:07:14;;;;;;;6.60;6.20;;;24.10;99.90;;;;;;5049285;28;20201;-77
2023/09/01 11:09:55;;;;;;;6.97;6.57;;;24.20;99.90;;;;;;5048848;28;20677;-77
2023/09/01 11:12:29;;;;;;;6.73;6.20;;;24.30;99.90;;;;;;5046899;28;20306;-77
2023/09/01 11:14:59;;;;;;;7.90;7.33;;;24.40;99.90;;;;;;5046337;28;20630;-77
2023/09/01 11:17:45;;;;;;;7.60;7.10;;;24.60;99.90;;;;;;5049677;28;20192;-77
2023/09/01 11:20:16;;;;;;;7.97;7.37;;;24.80;99.90;;;;;;5049480;28;20195;-76
2023/09/01 11:22:43;;;;;;;6.90;6.50;;;24.90;99.90;;;;;;5039901;28;20746;-77
2023/09/01 11:25:14;;;;;;;8.13;7.63;;;25.20;99.90;;;;;;5049148;28;20194;-76
2023/09/01 11:27:45;;;;;;;5.37;5.07;;;25.30;99.90;;;;;;5044694;28;20203;-77
2023/09/01 11:30:13;;;;;;;7.67;7.27;;;25.40;99.90;;;;;;5049162;28;20245;-77
2023/09/01 11:32:39;;;;;;;5.50;5.10;;;25.50;99.90;;;;;;5048933;28;20206;-77
2023/09/01 11:35:09;;;;;;;7.80;7.37;;;25.70;99.90;;;;;;5033430;28;20744;-77
2023/09/01 11:37:41;;;;;;;7.80;7.20;;;25.60;99.90;;;;;;5049026;28;20674;-77
2023/09/01 11:40:09;;;;;;;7.50;7.00;;;25.50;99.90;;;;;;5051850;28;20199;-77
2023/09/01 11:42:40;;;;;;;5.17;4.77;;;25.40;99.90;;;;;;5048591;28;20226;-77
2023/09/01 11:45:09;;;;;;;4.03;3.83;;;25.30;99.90;;;;;;5050966;28;20196;-77
2023/09/01 11:47:36;;;;;;;5.80;5.40;;;25.20;99.90;;;;;;5049804;28;20199;-77
2023/09/01 11:50:03;;;;;;;7.30;6.77;;;24.90;99.90;;;;;;5042627;28;20207;-77
2023/09/01 11:52:30;;;;;;;7.47;6.97;;;24.90;99.90;;;;;;5047830;28;20219;-77
2023/09/01 11:54:57;;;;;;;7.63;7.23;;;24.80;99.90;;;;;;5043496;28;20227;-77
2023/09/01 11:57:24;;;;;;;8.07;7.57;;;24.60;99.90;;;;;;5043420;28;20563;-77
2023/09/01 11:59:52;;;;;;;3.90;3.60;;;24.40;99.90;;;;;;5051405;28;20230;-77
2023/09/01 12:02:20;;;;;;;4.60;4.20;;;24.20;99.90;;;;;;5048596;28;20234;-77
2023/09/01 12:04:49;;;;;;;5.77;5.37;;;24.00;99.90;;;;;;5045945;28;20203;-77
2023/09/01 12:07:24;;;;;;;6.53;6.13;;;24.00;99.90;;;;;;5048583;28;20230;-77
2023/09/01 12:09:52;;;;;;;6.43;6.13;;;24.00;99.90;;;;;;5048752;28;20190;-76
2023/09/01 12:12:19;;;;;;;4.73;4.43;;;24.20;99.90;;;;;;5046721;28;20218;-77
2023/09/01 12:14:46;;;;;;;6.50;6.10;;;24.30;99.90;;;;;;5043925;28;20210;-77
2023/09/01 12:17:19;;;;;;;6.90;6.50;;;24.30;99.90;;;;;;5046297;28;20196;-76
2023/09/01 12:19:48;;;;;;;6.93;6.53;;;24.30;99.90;;;;;;5046356;28;20593;-77
2023/09/01 12:22:15;;;;;;;3.77;3.57;;;24.20;99.90;;;;;;5050042;28;20211;-77
2023/09/01 12:24:52;;;;;;;6.57;6.17;;;24.20;99.90;;;;;;5050724;28;20258;-77
2023/09/01 12:27:19;;;;;;;6.57;6.10;;;24.10;99.90;;;;;;5043480;28;20195;-77
2023/09/01 12:29:46;;;;;;;7.07;6.57;;;24.10;99.90;;;;;;5046281;28;20195;-76
2023/09/01 12:32:13;;;;;;;5.20;4.90;;;24.20;99.90;;;;;;5043967;28;20291;-77
2023/09/01 12:34:42;;;;;;;5.53;5.23;;;24.20;99.90;;;;;;5047288;28;20693;-77
2023/09/01 12:37:09;;;;;;;3.80;3.50;;;24.20;99.90;;;;;;5045521;28;20207;-77
2023/09/01 12:39:38;;;;;;;4.20;3.90;;;24.10;99.90;;;;;;5046209;28;20196;-76
2023/09/01 12:42:05;;;;;;;5.70;5.40;;;24.10;99.90;;;;;;5039384;28;20241;-76
2023/09/01 12:44:32;;;;;;;8.40;7.90;;;24.10;99.90;;;;;;5046808;28;20199;-75
2023/09/01 12:46:59;;;;;;;5.97;5.53;;;24.10;99.90;;;;;;5050389;28;20206;-76
2023/09/01 12:49:26;;;;;;;5.30;5.00;;;24.10;99.90;;;;;;5047192;28;20245;-77
2023/09/01 12:51:54;;;;;;;5.23;4.93;;;24.00;99.90;;;;;;5045293;28;21640;-76
2023/09/01 12:54:21;;;;;;;10.33;9.57;;;24.00;99.90;;;;;;5044864;28;20233;-77